Terminal Aerodrome Forecast
Issued by NWS

Home | Current Version | Previous Version | Text Only | Print | Product List | Glossary On
Versions: 1 2 3 4 5 6 7 8 9 10 11 12 13 14 15 16 17 18 19 20 21 22 23
000
FTUS45 KMSO 261730
TAFSMN
TAF
KSMN 261730Z 2618/2718 00000KT 1/2SM FG BKN002
     FM262000 VRB05KT P6SM VCFG BKN020 OVC180
     FM262200 VRB05KT P6SM SCT020 BKN100
     FM270300 00000KT 1SM BR SCT100
      AMD LTD TO CLD VIS AND WIND=

USA.gov is the U.S. government's official web portal to all federal, state and local government web resources and services.